sensor_id;sensor_type;location;lat;lon;timestamp;temperature;humidity
28959;DHT22;16066;0.000;0.000;2024-02-14T06:00:30;20.70;44.30
28959;DHT22;16066;0.000;0.000;2024-02-14T06:02:56;20.80;44.30
28959;DHT22;16066;0.000;0.000;2024-02-14T06:05:22;20.80;45.50
28959;DHT22;16066;0.000;0.000;2024-02-14T06:07:47;20.90;44.30
28959;DHT22;16066;0.000;0.000;2024-02-14T06:10:13;21.00;44.30
28959;DHT22;16066;0.000;0.000;2024-02-14T06:12:39;21.00;44.10
28959;DHT22;16066;0.000;0.000;2024-02-14T06:15:06;21.00;44.20
28959;DHT22;16066;0.000;0.000;2024-02-14T06:17:33;21.10;44.10
28959;DHT22;16066;0.000;0.000;2024-02-14T06:19:58;21.10;44.70
28959;DHT22;16066;0.000;0.000;2024-02-14T06:22:24;21.10;44.00
28959;DHT22;16066;0.000;0.000;2024-02-14T06:24:50;21.20;44.20
28959;DHT22;16066;0.000;0.000;2024-02-14T06:27:15;21.20;44.10
28959;DHT22;16066;0.000;0.000;2024-02-14T06:29:44;21.30;43.90
28959;DHT22;16066;0.000;0.000;2024-02-14T06:32:12;21.30;43.80
28959;DHT22;16066;0.000;0.000;2024-02-14T06:34:38;21.40;43.80
28959;DHT22;16066;0.000;0.000;2024-02-14T06:37:03;21.40;43.80
28959;DHT22;16066;0.000;0.000;2024-02-14T06:39:29;21.40;43.60
28959;DHT22;16066;0.000;0.000;2024-02-14T06:41:55;21.40;43.70
28959;DHT22;16066;0.000;0.000;2024-02-14T06:44:23;21.40;42.90
28959;DHT22;16066;0.000;0.000;2024-02-14T06:46:48;21.30;43.00
28959;DHT22;16066;0.000;0.000;2024-02-14T06:49:15;21.20;43.00
28959;DHT22;16066;0.000;0.000;2024-02-14T06:51:40;21.20;43.10
28959;DHT22;16066;0.000;0.000;2024-02-14T06:54:06;21.20;43.50
28959;DHT22;16066;0.000;0.000;2024-02-14T06:56:31;21.10;43.20
28959;DHT22;16066;0.000;0.000;2024-02-14T06:58:57;21.10;43.30
28959;DHT22;16066;0.000;0.000;2024-02-14T07:01:26;21.10;43.40
28959;DHT22;16066;0.000;0.000;2024-02-14T07:03:52;21.10;43.50
28959;DHT22;16066;0.000;0.000;2024-02-14T07:06:18;21.10;43.50
28959;DHT22;16066;0.000;0.000;2024-02-14T07:08:43;21.10;43.50
28959;DHT22;16066;0.000;0.000;2024-02-14T07:11:09;21.00;43.50
28959;DHT22;16066;0.000;0.000;2024-02-14T07:13:35;21.10;43.50
28959;DHT22;16066;0.000;0.000;2024-02-14T07:16:00;21.20;43.70
28959;DHT22;16066;0.000;0.000;2024-02-14T07:18:26;21.30;43.40
28959;DHT22;16066;0.000;0.000;2024-02-14T07:20:52;21.30;43.30
28959;DHT22;16066;0.000;0.000;2024-02-14T07:23:18;21.20;43.30
28959;DHT22;16066;0.000;0.000;2024-02-14T07:25:44;21.20;43.80
28959;DHT22;16066;0.000;0.000;2024-02-14T07:28:10;21.30;43.20
28959;DHT22;16066;0.000;0.000;2024-02-14T07:30:37;21.20;43.20
28959;DHT22;16066;0.000;0.000;2024-02-14T07:33:02;21.20;43.20
28959;DHT22;16066;0.000;0.000;2024-02-14T07:35:28;21.30;43.60
28959;DHT22;16066;0.000;0.000;2024-02-14T07:37:55;21.30;43.20
28959;DHT22;16066;0.000;0.000;2024-02-14T07:40:21;21.40;43.20
28959;DHT22;16066;0.000;0.000;2024-02-14T07:42:47;21.40;43.20
28959;DHT22;16066;0.000;0.000;2024-02-14T07:45:13;21.40;43.20
28959;DHT22;16066;0.000;0.000;2024-02-14T07:47:39;21.50;43.10
28959;DHT22;16066;0.000;0.000;2024-02-14T07:50:06;21.50;43.10
28959;DHT22;16066;0.000;0.000;2024-02-14T07:52:32;21.50;43.10
28959;DHT22;16066;0.000;0.000;2024-02-14T07:54:57;21.60;43.80
28959;DHT22;16066;0.000;0.000;2024-02-14T07:57:23;21.60;43.20
28959;DHT22;16066;0.000;0.000;2024-02-14T07:59:50;21.50;43.20
28959;DHT22;16066;0.000;0.000;2024-02-14T08:02:16;21.50;43.20
28959;DHT22;16066;0.000;0.000;2024-02-14T08:04:42;21.50;43.30
28959;DHT22;16066;0.000;0.000;2024-02-14T08:07:09;21.50;43.30
28959;DHT22;16066;0.000;0.000;2024-02-14T08:09:34;21.50;43.40
28959;DHT22;16066;0.000;0.000;2024-02-14T08:12:00;21.50;43.30
28959;DHT22;16066;0.000;0.000;2024-02-14T08:14:26;21.50;43.50
28959;DHT22;16066;0.000;0.000;2024-02-14T08:16:52;21.50;43.60
28959;DHT22;16066;0.000;0.000;2024-02-14T08:19:17;21.40;43.50
28959;DHT22;16066;0.000;0.000;2024-02-14T08:21:44;21.50;43.50
28959;DHT22;16066;0.000;0.000;2024-02-14T08:24:09;21.50;43.70
28959;DHT22;16066;0.000;0.000;2024-02-14T08:26:35;21.40;43.50
28959;DHT22;16066;0.000;0.000;2024-02-14T08:29:01;21.40;44.20
28959;DHT22;16066;0.000;0.000;2024-02-14T08:31:26;21.40;43.60
28959;DHT22;16066;0.000;0.000;2024-02-14T08:33:52;21.40;43.70
28959;DHT22;16066;0.000;0.000;2024-02-14T08:36:19;21.40;43.70
28959;DHT22;16066;0.000;0.000;2024-02-14T08:38:44;21.30;43.60
28959;DHT22;16066;0.000;0.000;2024-02-14T08:41:10;21.30;43.60
28959;DHT22;16066;0.000;0.000;2024-02-14T08:43:35;21.30;43.70
28959;DHT22;16066;0.000;0.000;2024-02-14T08:46:01;21.20;43.60
28959;DHT22;16066;0.000;0.000;2024-02-14T08:48:28;21.20;43.70
28959;DHT22;16066;0.000;0.000;2024-02-14T08:50:55;21.20;43.80
28959;DHT22;16066;0.000;0.000;2024-02-14T08:53:21;21.20;43.80
28959;DHT22;16066;0.000;0.000;2024-02-14T08:55:47;21.20;44.10
28959;DHT22;16066;0.000;0.000;2024-02-14T08:58:12;21.10;43.90
28959;DHT22;16066;0.000;0.000;2024-02-14T09:00:38;21.10;43.90
28959;DHT22;16066;0.000;0.000;2024-02-14T09:03:05;21.10;44.00
28959;DHT22;16066;0.000;0.000;2024-02-14T09:05:30;21.10;44.10
28959;DHT22;16066;0.000;0.000;2024-02-14T09:07:56;21.10;44.10
28959;DHT22;16066;0.000;0.000;2024-02-14T09:10:22;21.10;44.10
28959;DHT22;16066;0.000;0.000;2024-02-14T09:12:48;21.10;44.10
28959;DHT22;16066;0.000;0.000;2024-02-14T09:15:14;21.00;44.10
28959;DHT22;16066;0.000;0.000;2024-02-14T09:17:39;21.00;44.10
28959;DHT22;16066;0.000;0.000;2024-02-14T09:20:07;21.00;44.10
28959;DHT22;16066;0.000;0.000;2024-02-14T09:22:38;20.90;44.10
28959;DHT22;16066;0.000;0.000;2024-02-14T09:25:07;20.90;44.20
28959;DHT22;16066;0.000;0.000;2024-02-14T09:27:34;20.90;44.30
28959;DHT22;16066;0.000;0.000;2024-02-14T09:30:01;21.00;44.50
28959;DHT22;16066;0.000;0.000;2024-02-14T09:32:26;21.00;44.40
28959;DHT22;16066;0.000;0.000;2024-02-14T09:34:52;21.00;44.40
28959;DHT22;16066;0.000;0.000;2024-02-14T09:37:17;21.00;44.50
28959;DHT22;16066;0.000;0.000;2024-02-14T09:39:43;21.00;44.50
28959;DHT22;16066;0.000;0.000;2024-02-14T09:42:13;21.00;44.50
28959;DHT22;16066;0.000;0.000;2024-02-14T09:44:40;21.00;45.10
28959;DHT22;16066;0.000;0.000;2024-02-14T09:47:07;21.00;44.50
28959;DHT22;16066;0.000;0.000;2024-02-14T09:49:35;21.00;44.50
28959;DHT22;16066;0.000;0.000;2024-02-14T09:52:02;21.00;44.40
28959;DHT22;16066;0.000;0.000;2024-02-14T09:54:29;21.00;44.40
28959;DHT22;16066;0.000;0.000;2024-02-14T09:56:57;21.00;44.40
28959;DHT22;16066;0.000;0.000;2024-02-14T09:59:23;21.00;44.40
28959;DHT22;16066;0.000;0.000;2024-02-14T10:01:49;21.00;44.40
28959;DHT22;16066;0.000;0.000;2024-02-14T10:04:16;21.00;44.60
28959;DHT22;16066;0.000;0.000;2024-02-14T10:06:44;20.90;44.60
28959;DHT22;16066;0.000;0.000;2024-02-14T10:09:10;20.90;45.30
28959;DHT22;16066;0.000;0.000;2024-02-14T10:11:36;20.90;44.70
28959;DHT22;16066;0.000;0.000;2024-02-14T10:14:02;20.90;44.70
28959;DHT22;16066;0.000;0.000;2024-02-14T10:16:29;21.00;44.80
28959;DHT22;16066;0.000;0.000;2024-02-14T10:18:55;21.00;44.80
28959;DHT22;16066;0.000;0.000;2024-02-14T10:21:21;20.90;44.60
28959;DHT22;16066;0.000;0.000;2024-02-14T10:23:47;21.00;44.50
28959;DHT22;16066;0.000;0.000;2024-02-14T10:26:17;20.90;44.50
28959;DHT22;16066;0.000;0.000;2024-02-14T10:28:44;21.00;44.50
28959;DHT22;16066;0.000;0.000;2024-02-14T10:31:10;21.00;44.50
28959;DHT22;16066;0.000;0.000;2024-02-14T10:33:36;20.90;44.50
28959;DHT22;16066;0.000;0.000;2024-02-14T10:36:02;20.90;44.60
28959;DHT22;16066;0.000;0.000;2024-02-14T10:38:32;20.90;44.60
28959;DHT22;16066;0.000;0.000;2024-02-14T10:41:01;20.90;44.70
28959;DHT22;16066;0.000;0.000;2024-02-14T10:43:27;20.90;44.70
28959;DHT22;16066;0.000;0.000;2024-02-14T10:46:04;20.80;44.70
28959;DHT22;16066;0.000;0.000;2024-02-14T10:48:31;20.90;44.60
28959;DHT22;16066;0.000;0.000;2024-02-14T10:51:02;20.90;44.60
28959;DHT22;16066;0.000;0.000;2024-02-14T10:53:32;20.90;44.60
28959;DHT22;16066;0.000;0.000;2024-02-14T10:55:59;20.90;44.70
28959;DHT22;16066;0.000;0.000;2024-02-14T10:58:27;20.90;44.70
28959;DHT22;16066;0.000;0.000;2024-02-14T11:00:55;20.90;44.60
28959;DHT22;16066;0.000;0.000;2024-02-14T11:03:21;20.90;44.60
28959;DHT22;16066;0.000;0.000;2024-02-14T11:05:48;20.90;44.60
28959;DHT22;16066;0.000;0.000;2024-02-14T11:08:15;20.90;44.60
28959;DHT22;16066;0.000;0.000;2024-02-14T11:10:52;20.90;44.70
28959;DHT22;16066;0.000;0.000;2024-02-14T11:13:18;20.90;44.60
28959;DHT22;16066;0.000;0.000;2024-02-14T11:15:46;20.90;44.60
28959;DHT22;16066;0.000;0.000;2024-02-14T11:18:12;20.90;44.60
28959;DHT22;16066;0.000;0.000;2024-02-14T11:20:38;20.90;44.60
28959;DHT22;16066;0.000;0.000;2024-02-14T11:23:06;20.90;44.50
28959;DHT22;16066;0.000;0.000;2024-02-14T11:25:37;20.90;44.60
28959;DHT22;16066;0.000;0.000;2024-02-14T11:28:16;20.90;45.00
28959;DHT22;16066;0.000;0.000;2024-02-14T11:30:42;20.90;44.90
28959;DHT22;16066;0.000;0.000;2024-02-14T11:33:22;20.80;44.70
28959;DHT22;16066;0.000;0.000;2024-02-14T11:35:51;20.80;44.80
28959;DHT22;16066;0.000;0.000;2024-02-14T11:38:17;20.90;44.90
28959;DHT22;16066;0.000;0.000;2024-02-14T11:40:43;20.80;44.80
28959;DHT22;16066;0.000;0.000;2024-02-14T11:43:16;20.80;44.80
28959;DHT22;16066;0.000;0.000;2024-02-14T11:45:45;20.80;44.80
28959;DHT22;16066;0.000;0.000;2024-02-14T11:48:15;20.80;44.80
28959;DHT22;16066;0.000;0.000;2024-02-14T11:50:43;20.80;44.80
28959;DHT22;16066;0.000;0.000;2024-02-14T11:53:13;20.70;44.70
28959;DHT22;16066;0.000;0.000;2024-02-14T11:55:40;20.70;44.80
28959;DHT22;16066;0.000;0.000;2024-02-14T11:58:10;20.70;45.00
28959;DHT22;16066;0.000;0.000;2024-02-14T12:00:40;20.70;44.90
28959;DHT22;16066;0.000;0.000;2024-02-14T12:03:15;20.70;45.10
28959;DHT22;16066;0.000;0.000;2024-02-14T12:05:42;20.70;45.00
28959;DHT22;16066;0.000;0.000;2024-02-14T12:08:09;20.70;44.90
28959;DHT22;16066;0.000;0.000;2024-02-14T12:10:36;20.70;45.00
28959;DHT22;16066;0.000;0.000;2024-02-14T12:13:08;20.70;45.10
28959;DHT22;16066;0.000;0.000;2024-02-14T12:15:41;20.70;45.20
28959;DHT22;16066;0.000;0.000;2024-02-14T12:18:08;20.70;45.10
28959;DHT22;16066;0.000;0.000;2024-02-14T12:20:35;20.70;45.30
28959;DHT22;16066;0.000;0.000;2024-02-14T12:23:01;20.70;45.10
28959;DHT22;16066;0.000;0.000;2024-02-14T12:25:27;20.60;45.20
28959;DHT22;16066;0.000;0.000;2024-02-14T12:27:53;20.60;45.20
28959;DHT22;16066;0.000;0.000;2024-02-14T12:30:18;20.60;45.30
28959;DHT22;16066;0.000;0.000;2024-02-14T12:32:45;20.60;45.30
28959;DHT22;16066;0.000;0.000;2024-02-14T12:35:11;20.60;45.90
28959;DHT22;16066;0.000;0.000;2024-02-14T12:37:37;20.60;45.30
28959;DHT22;16066;0.000;0.000;2024-02-14T12:40:04;20.60;45.30
28959;DHT22;16066;0.000;0.000;2024-02-14T12:42:30;20.60;45.40
28959;DHT22;16066;0.000;0.000;2024-02-14T12:44:57;20.60;45.40
28959;DHT22;16066;0.000;0.000;2024-02-14T12:47:23;20.60;45.40
28959;DHT22;16066;0.000;0.000;2024-02-14T12:49:50;20.60;45.40
28959;DHT22;16066;0.000;0.000;2024-02-14T12:52:16;20.60;45.40
28959;DHT22;16066;0.000;0.000;2024-02-14T12:54:41;20.60;45.40
28959;DHT22;16066;0.000;0.000;2024-02-14T12:57:07;20.60;45.40
28959;DHT22;16066;0.000;0.000;2024-02-14T12:59:32;20.60;45.40
28959;DHT22;16066;0.000;0.000;2024-02-14T13:01:58;20.60;45.40
28959;DHT22;16066;0.000;0.000;2024-02-14T13:04:24;20.60;45.40
28959;DHT22;16066;0.000;0.000;2024-02-14T13:06:49;20.50;45.30
28959;DHT22;16066;0.000;0.000;2024-02-14T13:09:15;20.50;45.30
28959;DHT22;16066;0.000;0.000;2024-02-14T13:11:41;20.50;45.30
28959;DHT22;16066;0.000;0.000;2024-02-14T13:14:08;20.60;45.40
28959;DHT22;16066;0.000;0.000;2024-02-14T13:16:34;20.60;45.40
28959;DHT22;16066;0.000;0.000;2024-02-14T13:18:59;20.60;45.50
28959;DHT22;16066;0.000;0.000;2024-02-14T13:21:25;20.60;45.50
28959;DHT22;16066;0.000;0.000;2024-02-14T13:23:51;20.60;45.30
28959;DHT22;16066;0.000;0.000;2024-02-14T13:26:16;20.60;45.40
28959;DHT22;16066;0.000;0.000;2024-02-14T13:28:42;20.60;45.40
28959;DHT22;16066;0.000;0.000;2024-02-14T13:31:08;20.60;45.40
28959;DHT22;16066;0.000;0.000;2024-02-14T13:33:35;20.60;45.40
28959;DHT22;16066;0.000;0.000;2024-02-14T13:36:01;20.60;45.40
28959;DHT22;16066;0.000;0.000;2024-02-14T13:38:26;20.60;45.40
28959;DHT22;16066;0.000;0.000;2024-02-14T13:40:52;20.60;45.30
28959;DHT22;16066;0.000;0.000;2024-02-14T13:43:17;20.60;45.40
28959;DHT22;16066;0.000;0.000;2024-02-14T13:45:44;20.60;45.30
28959;DHT22;16066;0.000;0.000;2024-02-14T13:48:10;20.60;45.40
28959;DHT22;16066;0.000;0.000;2024-02-14T13:50:36;20.60;45.50
28959;DHT22;16066;0.000;0.000;2024-02-14T13:53:03;20.60;45.90
28959;DHT22;16066;0.000;0.000;2024-02-14T13:55:29;20.50;45.50
28959;DHT22;16066;0.000;0.000;2024-02-14T13:57:55;20.60;45.60
28959;DHT22;16066;0.000;0.000;2024-02-14T14:00:20;20.60;45.60
28959;DHT22;16066;0.000;0.000;2024-02-14T14:02:46;20.60;45.60
28959;DHT22;16066;0.000;0.000;2024-02-14T14:05:12;20.60;45.60
28959;DHT22;16066;0.000;0.000;2024-02-14T14:07:38;20.60;45.60
28959;DHT22;16066;0.000;0.000;2024-02-14T14:10:10;20.60;45.50
28959;DHT22;16066;0.000;0.000;2024-02-14T14:12:36;20.60;45.50
28959;DHT22;16066;0.000;0.000;2024-02-14T14:15:02;20.60;45.60
28959;DHT22;16066;0.000;0.000;2024-02-14T14:17:28;20.60;45.50
28959;DHT22;16066;0.000;0.000;2024-02-14T14:19:54;20.60;45.50
28959;DHT22;16066;0.000;0.000;2024-02-14T14:22:20;20.60;45.50
28959;DHT22;16066;0.000;0.000;2024-02-14T14:24:46;20.60;45.30
28959;DHT22;16066;0.000;0.000;2024-02-14T14:27:12;20.60;45.40
28959;DHT22;16066;0.000;0.000;2024-02-14T14:29:41;20.60;45.50
28959;DHT22;16066;0.000;0.000;2024-02-14T14:32:07;20.60;45.60
28959;DHT22;16066;0.000;0.000;2024-02-14T14:34:33;20.60;45.60
28959;DHT22;16066;0.000;0.000;2024-02-14T14:36:58;20.60;45.70
28959;DHT22;16066;0.000;0.000;2024-02-14T14:39:24;20.60;45.70
28959;DHT22;16066;0.000;0.000;2024-02-14T14:41:49;20.70;45.90
28959;DHT22;16066;0.000;0.000;2024-02-14T14:44:16;20.70;45.80
28959;DHT22;16066;0.000;0.000;2024-02-14T14:46:42;20.70;45.80
28959;DHT22;16066;0.000;0.000;2024-02-14T14:49:10;20.70;45.70
28959;DHT22;16066;0.000;0.000;2024-02-14T14:51:37;20.70;45.70
28959;DHT22;16066;0.000;0.000;2024-02-14T14:54:04;20.70;45.70
28959;DHT22;16066;0.000;0.000;2024-02-14T14:56:30;20.70;45.70
28959;DHT22;16066;0.000;0.000;2024-02-14T14:58:55;20.70;45.60
28959;DHT22;16066;0.000;0.000;2024-02-14T15:01:24;20.70;45.60
28959;DHT22;16066;0.000;0.000;2024-02-14T15:03:50;20.80;45.60
28959;DHT22;16066;0.000;0.000;2024-02-14T15:06:18;20.80;45.70
28959;DHT22;16066;0.000;0.000;2024-02-14T15:08:44;20.80;45.60
28959;DHT22;16066;0.000;0.000;2024-02-14T15:11:10;20.80;45.60
28959;DHT22;16066;0.000;0.000;2024-02-14T15:13:40;20.80;45.50
28959;DHT22;16066;0.000;0.000;2024-02-14T15:16:06;20.80;45.50
28959;DHT22;16066;0.000;0.000;2024-02-14T15:18:33;20.80;45.40
28959;DHT22;16066;0.000;0.000;2024-02-14T15:20:59;20.90;45.40
28959;DHT22;16066;0.000;0.000;2024-02-14T15:23:24;20.80;45.20
28959;DHT22;16066;0.000;0.000;2024-02-14T15:25:51;20.90;45.30
28959;DHT22;16066;0.000;0.000;2024-02-14T15:28:17;20.90;45.20
28959;DHT22;16066;0.000;0.000;2024-02-14T15:30:51;20.90;45.20
28959;DHT22;16066;0.000;0.000;2024-02-14T15:33:35;20.90;45.20
28959;DHT22;16066;0.000;0.000;2024-02-14T15:36:01;20.90;45.20
28959;DHT22;16066;0.000;0.000;2024-02-14T15:38:27;20.90;45.20
28959;DHT22;16066;0.000;0.000;2024-02-14T15:40:54;20.90;45.20
28959;DHT22;16066;0.000;0.000;2024-02-14T15:43:23;20.90;45.30
28959;DHT22;16066;0.000;0.000;2024-02-14T15:45:50;20.90;45.30
28959;DHT22;16066;0.000;0.000;2024-02-14T15:48:16;20.80;45.20
28959;DHT22;16066;0.000;0.000;2024-02-14T15:50:42;20.80;45.40
28959;DHT22;16066;0.000;0.000;2024-02-14T15:53:12;20.80;45.50
28959;DHT22;16066;0.000;0.000;2024-02-14T15:55:37;20.80;45.50
28959;DHT22;16066;0.000;0.000;2024-02-14T15:58:03;20.80;45.50
28959;DHT22;16066;0.000;0.000;2024-02-14T16:00:29;20.80;45.50
28959;DHT22;16066;0.000;0.000;2024-02-14T16:02:58;20.80;45.60
28959;DHT22;16066;0.000;0.000;2024-02-14T16:05:25;20.70;45.60
28959;DHT22;16066;0.000;0.000;2024-02-14T16:07:51;20.80;45.50
28959;DHT22;16066;0.000;0.000;2024-02-14T16:10:17;20.80;45.50
28959;DHT22;16066;0.000;0.000;2024-02-14T16:12:43;20.80;45.50
28959;DHT22;16066;0.000;0.000;2024-02-14T16:15:10;20.80;45.50
28959;DHT22;16066;0.000;0.000;2024-02-14T16:17:36;20.90;45.40
28959;DHT22;16066;0.000;0.000;2024-02-14T16:20:03;20.90;45.40
28959;DHT22;16066;0.000;0.000;2024-02-14T16:22:29;20.90;46.10
28959;DHT22;16066;0.000;0.000;2024-02-14T16:24:55;20.90;45.40
28959;DHT22;16066;0.000;0.000;2024-02-14T16:27:20;20.90;45.40
28959;DHT22;16066;0.000;0.000;2024-02-14T16:29:46;20.90;45.40
28959;DHT22;16066;0.000;0.000;2024-02-14T16:32:12;20.90;45.40
28959;DHT22;16066;0.000;0.000;2024-02-14T16:34:37;20.90;45.40
28959;DHT22;16066;0.000;0.000;2024-02-14T16:37:03;20.90;45.60
28959;DHT22;16066;0.000;0.000;2024-02-14T16:39:28;20.90;45.70
28959;DHT22;16066;0.000;0.000;2024-02-14T16:41:54;20.90;45.80
28959;DHT22;16066;0.000;0.000;2024-02-14T16:44:19;20.90;46.00
28959;DHT22;16066;0.000;0.000;2024-02-14T16:46:46;20.90;45.90
28959;DHT22;16066;0.000;0.000;2024-02-14T16:49:12;20.90;45.80
28959;DHT22;16066;0.000;0.000;2024-02-14T16:51:37;20.90;45.80
28959;DHT22;16066;0.000;0.000;2024-02-14T16:54:03;20.90;45.90
28959;DHT22;16066;0.000;0.000;2024-02-14T16:56:29;20.90;45.90
28959;DHT22;16066;0.000;0.000;2024-02-14T16:58:58;20.90;45.90
28959;DHT22;16066;0.000;0.000;2024-02-14T17:01:24;20.90;45.90
28959;DHT22;16066;0.000;0.000;2024-02-14T17:03:51;20.90;45.80
28959;DHT22;16066;0.000;0.000;2024-02-14T17:06:17;20.90;45.70
28959;DHT22;16066;0.000;0.000;2024-02-14T17:08:43;20.90;45.70
28959;DHT22;16066;0.000;0.000;2024-02-14T17:11:15;20.90;45.70
28959;DHT22;16066;0.000;0.000;2024-02-14T17:13:44;20.90;45.70
28959;DHT22;16066;0.000;0.000;2024-02-14T17:16:10;20.80;45.60
28959;DHT22;16066;0.000;0.000;2024-02-14T17:18:36;20.90;45.80
28959;DHT22;16066;0.000;0.000;2024-02-14T17:21:02;20.80;45.70
28959;DHT22;16066;0.000;0.000;2024-02-14T17:23:27;20.90;46.00
28959;DHT22;16066;0.000;0.000;2024-02-14T17:25:53;20.90;45.90
28959;DHT22;16066;0.000;0.000;2024-02-14T17:28:20;20.90;46.10
28959;DHT22;16066;0.000;0.000;2024-02-14T17:30:45;20.90;46.20
28959;DHT22;16066;0.000;0.000;2024-02-14T17:33:11;20.90;46.20
28959;DHT22;16066;0.000;0.000;2024-02-14T17:35:37;21.00;46.40
28959;DHT22;16066;0.000;0.000;2024-02-14T17:38:02;21.00;46.40
28959;DHT22;16066;0.000;0.000;2024-02-14T17:40:28;21.00;46.50
28959;DHT22;16066;0.000;0.000;2024-02-14T17:42:53;21.00;46.40
28959;DHT22;16066;0.000;0.000;2024-02-14T17:45:19;21.00;46.20
28959;DHT22;16066;0.000;0.000;2024-02-14T17:47:45;21.00;46.10
28959;DHT22;16066;0.000;0.000;2024-02-14T17:50:11;21.10;46.00
28959;DHT22;16066;0.000;0.000;2024-02-14T17:52:37;21.00;46.00
28959;DHT22;16066;0.000;0.000;2024-02-14T17:55:04;21.00;45.90
28959;DHT22;16066;0.000;0.000;2024-02-14T17:57:30;21.00;45.90
28959;DHT22;16066;0.000;0.000;2024-02-14T17:59:55;21.00;45.90
28959;DHT22;16066;0.000;0.000;2024-02-14T18:02:21;21.10;45.90
28959;DHT22;16066;0.000;0.000;2024-02-14T18:04:47;21.00;45.90
28959;DHT22;16066;0.000;0.000;2024-02-14T18:07:13;21.00;46.10
28959;DHT22;16066;0.000;0.000;2024-02-14T18:09:38;21.00;46.20
28959;DHT22;16066;0.000;0.000;2024-02-14T18:12:04;21.00;47.00
28959;DHT22;16066;0.000;0.000;2024-02-14T18:14:30;21.00;46.50
28959;DHT22;16066;0.000;0.000;2024-02-14T18:16:56;21.00;46.80
28959;DHT22;16066;0.000;0.000;2024-02-14T18:19:23;21.00;46.50
28959;DHT22;16066;0.000;0.000;2024-02-14T18:21:49;21.00;46.40
28959;DHT22;16066;0.000;0.000;2024-02-14T18:24:15;21.00;46.40
28959;DHT22;16066;0.000;0.000;2024-02-14T18:26:40;21.10;46.30
28959;DHT22;16066;0.000;0.000;2024-02-14T18:29:06;21.10;46.40
28959;DHT22;16066;0.000;0.000;2024-02-14T18:31:32;21.10;46.30
28959;DHT22;16066;0.000;0.000;2024-02-14T18:33:59;21.10;46.30
28959;DHT22;16066;0.000;0.000;2024-02-14T18:36:24;21.10;46.30
28959;DHT22;16066;0.000;0.000;2024-02-14T18:38:51;21.20;46.30
28959;DHT22;16066;0.000;0.000;2024-02-14T18:41:18;21.20;46.40
28959;DHT22;16066;0.000;0.000;2024-02-14T18:43:43;21.20;46.40
28959;DHT22;16066;0.000;0.000;2024-02-14T18:46:09;21.20;46.00
28959;DHT22;16066;0.000;0.000;2024-02-14T18:48:35;21.20;46.10
28959;DHT22;16066;0.000;0.000;2024-02-14T18:51:03;21.30;45.70
28959;DHT22;16066;0.000;0.000;2024-02-14T18:53:28;21.30;46.00
28959;DHT22;16066;0.000;0.000;2024-02-14T18:55:54;21.30;46.00
28959;DHT22;16066;0.000;0.000;2024-02-14T18:58:20;21.30;46.10
28959;DHT22;16066;0.000;0.000;2024-02-14T19:00:46;21.30;45.70
28959;DHT22;16066;0.000;0.000;2024-02-14T19:03:11;21.30;45.60
28959;DHT22;16066;0.000;0.000;2024-02-14T19:05:37;21.30;45.60
28959;DHT22;16066;0.000;0.000;2024-02-14T19:08:03;21.40;45.50
28959;DHT22;16066;0.000;0.000;2024-02-14T19:10:28;21.50;45.70
28959;DHT22;16066;0.000;0.000;2024-02-14T19:12:55;21.50;45.30
28959;DHT22;16066;0.000;0.000;2024-02-14T19:15:21;21.60;45.00
28959;DHT22;16066;0.000;0.000;2024-02-14T19:17:47;21.70;45.00
28959;DHT22;16066;0.000;0.000;2024-02-14T19:20:13;21.70;44.90
28959;DHT22;16066;0.000;0.000;2024-02-14T19:22:39;21.80;44.80
28959;DHT22;16066;0.000;0.000;2024-02-14T19:25:05;21.80;44.70
28959;DHT22;16066;0.000;0.000;2024-02-14T19:27:31;21.90;44.90
28959;DHT22;16066;0.000;0.000;2024-02-14T19:29:56;21.90;44.70
28959;DHT22;16066;0.000;0.000;2024-02-14T19:32:22;21.90;44.60
28959;DHT22;16066;0.000;0.000;2024-02-14T19:34:48;21.90;44.40
28959;DHT22;16066;0.000;0.000;2024-02-14T19:37:13;22.00;44.40
28959;DHT22;16066;0.000;0.000;2024-02-14T19:39:39;22.00;44.40
28959;DHT22;16066;0.000;0.000;2024-02-14T19:42:05;22.00;44.30
28959;DHT22;16066;0.000;0.000;2024-02-14T19:44:30;22.00;44.30
28959;DHT22;16066;0.000;0.000;2024-02-14T19:46:56;22.00;44.90
28959;DHT22;16066;0.000;0.000;2024-02-14T19:49:21;22.00;44.10
28959;DHT22;16066;0.000;0.000;2024-02-14T19:51:47;22.00;44.20
28959;DHT22;16066;0.000;0.000;2024-02-14T19:54:13;22.00;44.70
28959;DHT22;16066;0.000;0.000;2024-02-14T19:56:41;22.00;44.70
28959;DHT22;16066;0.000;0.000;2024-02-14T19:59:07;22.10;44.80
28959;DHT22;16066;0.000;0.000;2024-02-14T20:01:33;22.10;44.70
28959;DHT22;16066;0.000;0.000;2024-02-14T20:03:58;22.00;44.50
28959;DHT22;16066;0.000;0.000;2024-02-14T20:06:26;22.00;44.50
28959;DHT22;16066;0.000;0.000;2024-02-14T20:08:52;22.10;44.70
28959;DHT22;16066;0.000;0.000;2024-02-14T20:11:23;22.00;44.40
28959;DHT22;16066;0.000;0.000;2024-02-14T20:13:50;22.00;44.30
28959;DHT22;16066;0.000;0.000;2024-02-14T20:16:15;22.00;44.40
28959;DHT22;16066;0.000;0.000;2024-02-14T20:18:42;22.00;44.40
28959;DHT22;16066;0.000;0.000;2024-02-14T20:21:07;22.00;44.40
28959;DHT22;16066;0.000;0.000;2024-02-14T20:23:34;22.00;44.40
28959;DHT22;16066;0.000;0.000;2024-02-14T20:25:59;22.00;44.50
28959;DHT22;16066;0.000;0.000;2024-02-14T20:28:25;22.00;44.60
28959;DHT22;16066;0.000;0.000;2024-02-14T20:30:52;22.00;44.60
28959;DHT22;16066;0.000;0.000;2024-02-14T20:33:18;22.10;44.70
28959;DHT22;16066;0.000;0.000;2024-02-14T20:35:43;22.10;44.50
28959;DHT22;16066;0.000;0.000;2024-02-14T20:38:09;22.10;44.50
28959;DHT22;16066;0.000;0.000;2024-02-14T20:40:37;22.10;44.50
28959;DHT22;16066;0.000;0.000;2024-02-14T20:43:03;22.10;44.40
28959;DHT22;16066;0.000;0.000;2024-02-14T20:45:29;22.20;44.30
28959;DHT22;16066;0.000;0.000;2024-02-14T20:47:55;22.20;44.50
28959;DHT22;16066;0.000;0.000;2024-02-14T20:50:20;22.20;44.20
28959;DHT22;16066;0.000;0.000;2024-02-14T20:52:46;22.10;44.10
28959;DHT22;16066;0.000;0.000;2024-02-14T20:55:11;22.00;44.20
28959;DHT22;16066;0.000;0.000;2024-02-14T20:57:36;22.10;44.60
28959;DHT22;16066;0.000;0.000;2024-02-14T21:00:02;22.00;44.50
28959;DHT22;16066;0.000;0.000;2024-02-14T21:02:28;22.00;44.50
28959;DHT22;16066;0.000;0.000;2024-02-14T21:04:53;22.10;44.50
28959;DHT22;16066;0.000;0.000;2024-02-14T21:07:19;22.10;44.50
28959;DHT22;16066;0.000;0.000;2024-02-14T21:09:45;22.10;44.50
28959;DHT22;16066;0.000;0.000;2024-02-14T21:12:10;22.00;44.30
28959;DHT22;16066;0.000;0.000;2024-02-14T21:14:36;22.10;44.30
28959;DHT22;16066;0.000;0.000;2024-02-14T21:17:02;22.10;44.40
28959;DHT22;16066;0.000;0.000;2024-02-14T21:19:28;22.10;44.00
28959;DHT22;16066;0.000;0.000;2024-02-14T21:21:54;22.10;44.10
28959;DHT22;16066;0.000;0.000;2024-02-14T21:24:19;22.10;44.00
28959;DHT22;16066;0.000;0.000;2024-02-14T21:26:45;22.10;44.00
28959;DHT22;16066;0.000;0.000;2024-02-14T21:29:14;22.20;44.00
28959;DHT22;16066;0.000;0.000;2024-02-14T21:31:40;22.20;44.20
28959;DHT22;16066;0.000;0.000;2024-02-14T21:34:05;22.20;44.10
28959;DHT22;16066;0.000;0.000;2024-02-14T21:36:31;22.10;43.90
28959;DHT22;16066;0.000;0.000;2024-02-14T21:39:01;22.10;43.90